Elizabeth Mc Allister — WDB7652 — position and weather

sailwx.info

Track history (hours):
 
Tides and Currents Weather Stations Pressure Air Temp Water Temp Dewpoint Dewpoint Depression Visibility Wind Speed Wind Dir Waves Ship Positions

Elizabeth Mc Allister

Owner: MC ALLISTER TOWING & TRANSPORTATION INC, NEW YORK, NY. More information available from US FCC via Universal Licensing System and Coast Guard Vessel Documentation Center.

Last reported at 2016-May-25 23:11 UTC. Time now 2016-May-31 12:02 UTC.
Position N 40°38' W 074°10'.

Length 31 m.

Type: Tug. MMSI: 362751376.

Date/timePositionNaut miles runAvg speedWind from/ knotsBaromVisibWave heightAir tempDewpointWater temp
2016-May-25 23:11N 40°38' W 074°10'0 0.0
2016-May-25 21:29N 40°38' W 074°10'5 5.3
2016-May-25 20:33N 40°39' W 074°03'3 3.3
2016-May-25 19:33N 40°42' W 074°02'4 1.8
2016-May-25 17:12N 40°46' W 074°00'5 7.8
2016-May-25 16:33N 40°41' W 074°02'4 4.0
2016-May-25 15:33N 40°38' W 074°04'5 1.6
2016-May-25 12:34N 40°39' W 074°10'0 0.1
2016-May-25 11:32N 40°38' W 074°10'0 0.0
2016-May-25 08:16N 40°38' W 074°10'0 0.0
2016-May-25 07:28N 40°38' W 074°10'0 0.0
2016-May-25 06:30N 40°38' W 074°10'0 0.0
2016-May-25 05:30N 40°38' W 074°10'0 0.0
2016-May-23 07:33N 40°38' W 074°10'0 0.0
2016-May-23 06:28N 40°38' W 074°10'0 0.0
2016-May-23 05:30N 40°38' W 074°10'0 0.0
2016-May-22 18:11N 40°38' W 074°10'0 0.0
2016-May-22 05:06N 40°38' W 074°10'0 0.0
2016-May-22 03:33N 40°38' W 074°10'0 0.0
2016-May-22 02:30N 40°38' W 074°10'0 0.0
2016-May-21 09:33N 40°38' W 074°10'0 0.0
2016-May-21 08:30N 40°38' W 074°10'0 0.0
2016-May-21 07:31N 40°38' W 074°10'0 0.0
2016-May-21 05:30N 40°38' W 074°10'0 0.0
2016-May-20 18:32N 40°38' W 074°10'0 0.0
2016-May-20 07:28N 40°38' W 074°10'0 0.0
2016-May-20 06:33N 40°38' W 074°10'0 0.0
2016-May-20 03:26N 40°38' W 074°10'0 0.0
2016-May-19 16:26N 40°38' W 074°10'0 0.4
2016-May-19 15:32N 40°38' W 074°09'2 2.1
2016-May-19 14:34N 40°40' W 074°08'0 0.0
2016-May-19 13:33N 40°40' W 074°08'0 0.0
2016-May-19 12:33N 40°40' W 074°08'1 1.1
2016-May-19 11:14N 40°42' W 074°09'3 4.6
2016-May-19 10:32N 40°39' W 074°09'1 1.2
2016-May-19 09:33N 40°40' W 074°08'4 4.2
2016-May-19 08:33N 40°38' W 074°03'5 4.8
2016-May-19 07:32N 40°38' W 074°10'0 0.0
2016-May-19 06:33N 40°38' W 074°10'0 0.0
2016-May-19 04:32N 40°38' W 074°10'0 0.0
2016-May-19 03:33N 40°38' W 074°10'0 0.0
2016-May-19 02:33N 40°38' W 074°10'0 0.0
2016-May-19 01:31N 40°38' W 074°10'0 0.0
2016-May-19 00:04N 40°38' W 074°10'0 0.0
2016-May-18 23:08N 40°38' W 074°10'0 0.0
2016-May-18 18:07N 40°38' W 074°10'0 0.0
2016-May-18 17:30N 40°38' W 074°10'0 0.0
2016-May-18 13:33N 40°38' W 074°10'0 0.0
2016-May-18 11:29N 40°38' W 074°10'0 0.0
2016-May-18 08:26N 40°38' W 074°10'0 0.0
2016-May-17 19:31N 40°38' W 074°10'0 0.0
2016-May-17 18:06N 40°38' W 074°10'0 0.0
2016-May-17 17:33N 40°38' W 074°10'0 0.0
2016-May-17 14:27N 40°38' W 074°10'0 0.0
2016-May-17 13:30N 40°38' W 074°10'0 0.0
2016-May-17 12:32N 40°38' W 074°10'0 0.0
2016-May-17 11:29N 40°38' W 074°10'  
Track history (hours):
 
Tides and Currents Weather Stations Pressure Air Temp Water Temp Dewpoint Dewpoint Depression Visibility Wind Speed Wind Dir Waves Ship Positions

Elizabeth Mc Allister

Owner: MC ALLISTER TOWING & TRANSPORTATION INC, NEW YORK, NY. More information available from US FCC via Universal Licensing System and Coast Guard Vessel Documentation Center.

Last reported at 2016-May-25 23:11 UTC. Time now 2016-May-31 12:02 UTC.
Position N 40°38' W 074°10'.

Length 31 m.

Type: Tug. MMSI: 362751376.

Date/timePositionNaut miles runAvg speedWind from/ knotsBaromVisibWave heightAir tempDewpointWater temp
2016-May-25 23:11N 40°38' W 074°10'0 0.0
2016-May-25 21:29N 40°38' W 074°10'5 5.3
2016-May-25 20:33N 40°39' W 074°03'3 3.3
2016-May-25 19:33N 40°42' W 074°02'4 1.8
2016-May-25 17:12N 40°46' W 074°00'5 7.8
2016-May-25 16:33N 40°41' W 074°02'4 4.0
2016-May-25 15:33N 40°38' W 074°04'5 1.6
2016-May-25 12:34N 40°39' W 074°10'0 0.1
2016-May-25 11:32N 40°38' W 074°10'0 0.0
2016-May-25 08:16N 40°38' W 074°10'0 0.0
2016-May-25 07:28N 40°38' W 074°10'0 0.0
2016-May-25 06:30N 40°38' W 074°10'0 0.0
2016-May-25 05:30N 40°38' W 074°10'0 0.0
2016-May-23 07:33N 40°38' W 074°10'0 0.0
2016-May-23 06:28N 40°38' W 074°10'0 0.0
2016-May-23 05:30N 40°38' W 074°10'0 0.0
2016-May-22 18:11N 40°38' W 074°10'0 0.0
2016-May-22 05:06N 40°38' W 074°10'0 0.0
2016-May-22 03:33N 40°38' W 074°10'0 0.0
2016-May-22 02:30N 40°38' W 074°10'0 0.0
2016-May-21 09:33N 40°38' W 074°10'0 0.0
2016-May-21 08:30N 40°38' W 074°10'0 0.0
2016-May-21 07:31N 40°38' W 074°10'0 0.0
2016-May-21 05:30N 40°38' W 074°10'0 0.0
2016-May-20 18:32N 40°38' W 074°10'0 0.0
2016-May-20 07:28N 40°38' W 074°10'0 0.0
2016-May-20 06:33N 40°38' W 074°10'0 0.0
2016-May-20 03:26N 40°38' W 074°10'0 0.0
2016-May-19 16:26N 40°38' W 074°10'0 0.4
2016-May-19 15:32N 40°38' W 074°09'2 2.1
2016-May-19 14:34N 40°40' W 074°08'0 0.0
2016-May-19 13:33N 40°40' W 074°08'0 0.0
2016-May-19 12:33N 40°40' W 074°08'1 1.1
2016-May-19 11:14N 40°42' W 074°09'3 4.6
2016-May-19 10:32N 40°39' W 074°09'1 1.2
2016-May-19 09:33N 40°40' W 074°08'4 4.2
2016-May-19 08:33N 40°38' W 074°03'5 4.8
2016-May-19 07:32N 40°38' W 074°10'0 0.0
2016-May-19 06:33N 40°38' W 074°10'0 0.0
2016-May-19 04:32N 40°38' W 074°10'0 0.0
2016-May-19 03:33N 40°38' W 074°10'0 0.0
2016-May-19 02:33N 40°38' W 074°10'0 0.0
2016-May-19 01:31N 40°38' W 074°10'0 0.0
2016-May-19 00:04N 40°38' W 074°10'0 0.0
2016-May-18 23:08N 40°38' W 074°10'0 0.0
2016-May-18 18:07N 40°38' W 074°10'0 0.0
2016-May-18 17:30N 40°38' W 074°10'0 0.0
2016-May-18 13:33N 40°38' W 074°10'0 0.0
2016-May-18 11:29N 40°38' W 074°10'0 0.0
2016-May-18 08:26N 40°38' W 074°10'0 0.0
2016-May-17 19:31N 40°38' W 074°10'0 0.0
2016-May-17 18:06N 40°38' W 074°10'0 0.0
2016-May-17 17:33N 40°38' W 074°10'0 0.0
2016-May-17 14:27N 40°38' W 074°10'0 0.0
2016-May-17 13:30N 40°38' W 074°10'0 0.0
2016-May-17 12:32N 40°38' W 074°10'0 0.0
2016-May-17 11:29N 40°38' W 074°10'  

Dump ship's entire track history